createdAt,value
2018-02-03T00:01:11.418Z,0.70
2018-02-03T00:03:39.903Z,0.60
2018-02-03T00:06:07.405Z,0.60
2018-02-03T00:08:34.950Z,0.60
2018-02-03T00:11:02.433Z,0.50
2018-02-03T00:13:29.934Z,0.60
2018-02-03T00:15:57.441Z,0.60
2018-02-03T00:18:24.958Z,0.70
2018-02-03T00:20:53.237Z,0.80
2018-02-03T00:23:21.494Z,0.90
2018-02-03T00:25:49.007Z,0.80
2018-02-03T00:28:16.504Z,0.90
2018-02-03T00:30:43.986Z,1.00
2018-02-03T00:33:12.239Z,1.10
2018-02-03T00:35:40.664Z,1.10
2018-02-03T00:38:08.377Z,1.10
2018-02-03T00:40:37.394Z,1.10
2018-02-03T00:43:05.657Z,1.10
2018-02-03T00:45:34.007Z,1.20
2018-02-03T00:48:01.519Z,1.10
2018-02-03T00:50:29.146Z,1.20
2018-02-03T00:52:57.445Z,1.20
2018-02-03T00:55:24.954Z,1.20
2018-02-03T00:57:52.464Z,1.20
2018-02-03T01:00:19.993Z,1.20
2018-02-03T01:02:47.470Z,1.20
2018-02-03T01:05:15.011Z,1.30
2018-02-03T01:07:42.577Z,1.30
2018-02-03T01:10:10.894Z,1.30
2018-02-03T01:12:38.434Z,1.40
2018-02-03T01:15:05.986Z,1.40
2018-02-03T01:17:34.257Z,1.50
2018-02-03T01:20:02.559Z,1.60
2018-02-03T01:22:30.074Z,1.50
2018-02-03T01:24:57.591Z,1.50
2018-02-03T01:27:25.138Z,1.60
2018-02-03T01:29:52.618Z,1.60
2018-02-03T01:32:20.091Z,1.60
2018-02-03T01:34:47.592Z,1.60
2018-02-03T01:37:15.146Z,1.50
2018-02-03T01:39:42.659Z,1.50
2018-02-03T01:42:10.134Z,1.40
2018-02-03T01:44:38.410Z,1.30
2018-02-03T01:47:07.412Z,1.30
2018-02-03T01:49:35.701Z,1.30
2018-02-03T01:52:03.239Z,1.30
2018-02-03T01:54:30.794Z,1.20
2018-02-03T01:56:58.305Z,1.20
2018-02-03T01:59:25.919Z,1.10
2018-02-03T02:01:53.406Z,1.00
2018-02-03T02:04:20.918Z,1.00
2018-02-03T02:06:48.431Z,1.00
2018-02-03T02:09:15.907Z,1.00
2018-02-03T02:11:43.420Z,1.10
2018-02-03T02:14:10.896Z,1.10
2018-02-03T02:16:39.183Z,1.20
2018-02-03T02:19:06.662Z,1.20
2018-02-03T02:21:34.153Z,1.20
2018-02-03T02:24:01.639Z,1.20
2018-02-03T02:26:29.157Z,1.30
2018-02-03T02:28:56.646Z,1.40
2018-02-03T02:31:24.502Z,1.50
2018-02-03T02:33:51.966Z,1.50
2018-02-03T02:36:20.211Z,1.60
2018-02-03T02:38:47.719Z,1.60
2018-02-03T02:41:15.196Z,1.60
2018-02-03T02:43:42.673Z,1.70
2018-02-03T02:46:10.863Z,1.90
2018-02-03T02:48:38.342Z,1.80
2018-02-03T02:51:06.633Z,2.00
2018-02-03T02:53:34.146Z,1.90
2018-02-03T02:56:01.646Z,2.00
2018-02-03T02:58:30.735Z,2.00
2018-02-03T03:00:58.250Z,2.00
2018-02-03T03:03:26.538Z,2.20
2018-02-03T03:05:54.026Z,2.10
2018-02-03T03:08:21.573Z,2.20
2018-02-03T03:10:50.622Z,2.30
2018-02-03T03:13:18.112Z,2.30
2018-02-03T03:15:47.116Z,2.30
2018-02-03T03:18:15.356Z,2.30
2018-02-03T03:20:42.815Z,2.30
2018-02-03T03:23:11.060Z,2.20
2018-02-03T03:25:39.258Z,2.20
2018-02-03T03:28:06.801Z,2.20
2018-02-03T03:30:34.336Z,2.20
2018-02-03T03:33:02.570Z,2.00
2018-02-03T03:35:30.646Z,2.00
2018-02-03T03:37:58.181Z,1.90
2018-02-03T03:40:25.654Z,1.90
2018-02-03T03:42:53.919Z,1.80
2018-02-03T03:45:21.445Z,1.80
2018-02-03T03:47:49.152Z,1.80
2018-02-03T03:50:16.737Z,1.80
2018-02-03T03:52:44.993Z,1.80
2018-02-03T03:55:13.258Z,1.80
2018-02-03T03:57:40.755Z,1.70
2018-02-03T04:00:09.015Z,1.80
2018-02-03T04:02:37.280Z,1.80
2018-02-03T04:05:06.295Z,1.80
2018-02-03T04:07:34.578Z,1.90
2018-02-03T04:10:02.024Z,1.90
2018-02-03T04:12:30.317Z,1.90
2018-02-03T04:14:57.806Z,1.90
2018-02-03T04:17:25.322Z,2.00
2018-02-03T04:19:52.805Z,2.00
2018-02-03T04:22:21.116Z,2.20
2018-02-03T04:24:49.109Z,2.10
2018-02-03T04:27:17.377Z,2.20
2018-02-03T04:29:44.862Z,2.20
2018-02-03T04:32:12.379Z,2.30
2018-02-03T04:34:41.386Z,2.40
2018-02-03T04:37:10.286Z,2.40
2018-02-03T04:39:37.851Z,2.40
2018-02-03T04:42:06.706Z,2.50
2018-02-03T04:44:34.190Z,2.50
2018-02-03T04:47:01.666Z,2.50
2018-02-03T04:49:29.166Z,2.50
2018-02-03T04:51:56.628Z,2.50
2018-02-03T04:54:24.137Z,2.50
2018-02-03T04:56:52.418Z,2.50
2018-02-03T04:59:19.902Z,2.50
2018-02-03T05:01:47.381Z,2.50
2018-02-03T05:04:14.950Z,2.50
2018-02-03T05:06:42.465Z,2.50
2018-02-03T05:09:09.983Z,2.60
2018-02-03T05:11:38.988Z,2.60
2018-02-03T05:14:07.261Z,2.60
2018-02-03T05:16:35.527Z,2.60
2018-02-03T05:19:03.820Z,2.60
2018-02-03T05:21:32.066Z,2.70
2018-02-03T05:24:00.292Z,2.70
2018-02-03T05:26:27.771Z,2.70
2018-02-03T05:28:55.306Z,2.80
2018-02-03T05:31:22.854Z,2.80
2018-02-03T05:33:51.094Z,2.80
2018-02-03T05:36:18.690Z,2.80
2018-02-03T05:38:46.910Z,2.80
2018-02-03T05:41:14.379Z,2.80
2018-02-03T05:43:41.928Z,2.90
2018-02-03T05:46:09.502Z,2.90
2018-02-03T05:48:37.058Z,2.90
2018-02-03T05:51:04.614Z,2.90
2018-02-03T05:53:32.082Z,3.00
2018-02-03T05:55:59.578Z,3.00
2018-02-03T05:58:27.846Z,3.10
2018-02-03T06:00:55.795Z,3.10
2018-02-03T06:03:23.247Z,3.10
2018-02-03T06:05:51.516Z,3.10
2018-02-03T06:08:19.785Z,3.10
2018-02-03T06:10:48.080Z,3.10
2018-02-03T06:13:16.345Z,3.10
2018-02-03T06:15:44.783Z,3.10
2018-02-03T06:18:12.279Z,3.10
2018-02-03T06:20:39.792Z,3.10
2018-02-03T06:23:08.081Z,3.10
2018-02-03T06:25:35.566Z,3.10
2018-02-03T06:28:03.056Z,3.10
2018-02-03T06:30:30.534Z,3.10
2018-02-03T06:32:58.016Z,3.10
2018-02-03T06:35:26.141Z,3.10
2018-02-03T06:37:54.361Z,3.10
2018-02-03T06:40:21.833Z,3.00
2018-02-03T06:42:49.297Z,3.10
2018-02-03T06:45:16.762Z,3.10
2018-02-03T06:47:44.986Z,3.00
2018-02-03T06:50:12.467Z,3.00
2018-02-03T06:52:39.928Z,3.10
2018-02-03T06:55:07.390Z,3.10
2018-02-03T06:57:36.370Z,3.00
2018-02-03T07:00:03.839Z,3.00
2018-02-03T07:02:32.123Z,3.10
2018-02-03T07:05:00.362Z,3.00
2018-02-03T07:07:27.859Z,3.00
2018-02-03T07:09:56.070Z,3.00
2018-02-03T07:12:23.538Z,3.00
2018-02-03T07:14:51.010Z,3.00
2018-02-03T07:17:19.491Z,3.00
2018-02-03T07:19:46.938Z,3.00
2018-02-03T07:22:14.434Z,3.10
2018-02-03T07:24:42.676Z,3.10
2018-02-03T07:27:10.185Z,3.00
2018-02-03T07:29:38.424Z,3.00
2018-02-03T07:32:06.901Z,3.00
2018-02-03T07:34:34.367Z,3.00
2018-02-03T07:37:01.842Z,3.00
2018-02-03T07:39:29.407Z,3.00
2018-02-03T07:41:56.858Z,3.00
2018-02-03T07:44:26.477Z,2.80
2018-02-03T07:46:54.714Z,2.80
2018-02-03T07:49:22.249Z,2.80
2018-02-03T07:51:50.566Z,2.80
2018-02-03T07:54:18.036Z,2.90
2018-02-03T07:56:46.269Z,2.90
2018-02-03T07:59:13.730Z,2.80
2018-02-03T08:01:41.197Z,2.90
2018-02-03T08:04:08.666Z,2.90
2018-02-03T08:06:36.885Z,2.90
2018-02-03T08:09:04.362Z,2.90
2018-02-03T08:11:31.866Z,3.00
2018-02-03T08:14:00.151Z,3.00
2018-02-03T08:16:27.697Z,3.00
2018-02-03T08:18:55.994Z,3.00
2018-02-03T08:21:24.236Z,3.10
2018-02-03T08:23:51.802Z,3.10
2018-02-03T08:26:19.266Z,3.10
2018-02-03T08:28:47.544Z,3.20
2018-02-03T08:31:14.994Z,3.20
2018-02-03T08:33:43.983Z,3.30
2018-02-03T08:36:12.267Z,3.40
2018-02-03T08:38:41.255Z,3.30
2018-02-03T08:41:09.479Z,3.40
2018-02-03T08:43:36.935Z,3.40
2018-02-03T08:46:04.446Z,3.40
2018-02-03T08:48:33.943Z,3.50
2018-02-03T08:51:01.402Z,3.50
2018-02-03T08:53:28.900Z,3.50
2018-02-03T08:55:56.374Z,3.50
2018-02-03T08:58:23.850Z,3.60
2018-02-03T09:00:51.315Z,3.60
2018-02-03T09:03:19.652Z,3.60
2018-02-03T09:05:47.119Z,3.60
2018-02-03T09:08:14.611Z,3.70
2018-02-03T09:10:42.058Z,3.60
2018-02-03T09:13:10.250Z,3.70
2018-02-03T09:15:38.486Z,3.70
2018-02-03T09:18:05.942Z,3.70
2018-02-03T09:20:33.413Z,3.80
2018-02-03T09:23:00.878Z,3.80
2018-02-03T09:25:28.358Z,3.80
2018-02-03T09:27:56.621Z,3.80
2018-02-03T09:30:24.103Z,3.80
2018-02-03T09:32:52.338Z,3.90
2018-02-03T09:35:19.798Z,3.90
2018-02-03T09:37:48.055Z,3.90
2018-02-03T09:40:15.504Z,3.90
2018-02-03T09:42:42.971Z,4.00
2018-02-03T09:45:10.450Z,4.00
2018-02-03T09:47:37.907Z,4.00
2018-02-03T09:50:05.494Z,4.00
2018-02-03T09:52:33.731Z,4.10
2018-02-03T09:55:01.210Z,4.10
2018-02-03T09:57:28.667Z,4.10
2018-02-03T09:59:56.894Z,4.10
2018-02-03T10:02:24.344Z,4.10
2018-02-03T10:04:51.831Z,4.10
2018-02-03T10:07:19.287Z,4.10
2018-02-03T10:09:46.734Z,4.10
2018-02-03T10:12:15.078Z,4.10
2018-02-03T10:14:43.310Z,4.30
2018-02-03T10:17:11.489Z,4.30
2018-02-03T10:19:38.949Z,4.30
2018-02-03T10:22:06.415Z,4.40
2018-02-03T10:24:33.869Z,4.40
2018-02-03T10:27:01.359Z,4.40
2018-02-03T10:29:28.809Z,4.50
2018-02-03T10:31:57.042Z,4.60
2018-02-03T10:34:24.510Z,4.60
2018-02-03T10:36:51.969Z,4.60
2018-02-03T10:39:19.430Z,4.50
2018-02-03T10:41:46.891Z,4.60
2018-02-03T10:44:14.351Z,4.60
2018-02-03T10:46:41.803Z,4.50
2018-02-03T10:49:09.278Z,4.50
2018-02-03T10:51:37.528Z,4.60
2018-02-03T10:54:04.982Z,4.60
2018-02-03T10:56:32.446Z,4.60
2018-02-03T10:58:59.899Z,4.80
2018-02-03T11:01:27.354Z,4.80
2018-02-03T11:03:54.864Z,4.70
2018-02-03T11:06:22.386Z,4.70
2018-02-03T11:08:49.790Z,4.80
2018-02-03T11:11:17.295Z,4.70
2018-02-03T11:13:45.554Z,4.30
2018-02-03T11:16:13.007Z,4.30
2018-02-03T11:18:40.476Z,4.20
2018-02-03T11:21:07.954Z,4.00
2018-02-03T11:23:36.205Z,3.90
2018-02-03T11:26:03.700Z,3.90
2018-02-03T11:28:31.146Z,3.90
2018-02-03T11:30:58.598Z,4.00
2018-02-03T11:33:26.839Z,3.80
2018-02-03T11:35:55.077Z,3.80
2018-02-03T11:38:22.540Z,3.80
2018-02-03T11:40:50.006Z,3.80
2018-02-03T11:43:17.462Z,3.70
2018-02-03T11:45:45.463Z,3.80
2018-02-03T11:48:12.931Z,3.80
2018-02-03T11:50:40.434Z,3.80
2018-02-03T11:53:07.890Z,3.80
2018-02-03T11:55:35.351Z,3.70
2018-02-03T11:58:02.819Z,3.70
2018-02-03T12:00:31.038Z,3.80
2018-02-03T12:02:59.262Z,3.90
2018-02-03T12:05:27.518Z,3.90
2018-02-03T12:07:54.970Z,3.90
2018-02-03T12:10:22.422Z,3.90
2018-02-03T12:12:49.898Z,3.90
2018-02-03T12:15:17.368Z,4.00
2018-02-03T12:17:44.814Z,4.00
2018-02-03T12:20:12.282Z,4.00
2018-02-03T12:22:39.726Z,4.00
2018-02-03T12:25:07.186Z,4.10
2018-02-03T12:27:34.650Z,4.10
2018-02-03T12:30:02.151Z,4.00
2018-02-03T12:32:30.425Z,4.20
2018-02-03T12:34:59.698Z,4.20
2018-02-03T12:37:27.151Z,4.30
2018-02-03T12:39:54.622Z,4.40
2018-02-03T12:42:22.122Z,4.40
2018-02-03T12:44:49.953Z,4.30
2018-02-03T12:47:17.373Z,4.30
2018-02-03T12:49:45.493Z,4.40
2018-02-03T12:52:13.734Z,4.40
2018-02-03T12:54:41.211Z,4.40
2018-02-03T12:57:11.445Z,4.40
2018-02-03T12:59:39.674Z,4.30
2018-02-03T13:02:07.473Z,4.30
2018-02-03T13:04:34.938Z,4.30
2018-02-03T13:07:03.196Z,4.30
2018-02-03T13:09:30.653Z,4.20
2018-02-03T13:11:58.112Z,4.30
2018-02-03T13:14:27.094Z,4.30
2018-02-03T13:16:55.059Z,4.30
2018-02-03T13:19:23.330Z,4.40
2018-02-03T13:21:51.717Z,4.40
2018-02-03T13:24:19.197Z,4.40
2018-02-03T13:26:47.421Z,4.20
2018-02-03T13:29:14.917Z,4.20
2018-02-03T13:31:42.430Z,4.20
2018-02-03T13:34:10.579Z,4.20
2018-02-03T13:36:38.801Z,4.30
2018-02-03T13:39:07.078Z,4.30
2018-02-03T13:41:34.562Z,4.30
2018-02-03T13:44:02.031Z,4.40
2018-02-03T13:46:30.421Z,4.40
2018-02-03T13:48:58.661Z,4.30
2018-02-03T13:51:26.142Z,4.30
2018-02-03T13:53:54.382Z,4.20
2018-02-03T13:56:21.880Z,4.20
2018-02-03T13:58:50.108Z,4.20
2018-02-03T14:01:17.582Z,4.20
2018-02-03T14:03:45.101Z,4.10
2018-02-03T14:06:12.557Z,4.20
2018-02-03T14:08:40.017Z,4.30
2018-02-03T14:11:07.505Z,4.30
2018-02-03T14:13:34.968Z,4.30
2018-02-03T14:16:02.434Z,4.30
2018-02-03T14:18:29.899Z,4.30
2018-02-03T14:20:57.382Z,4.20
2018-02-03T14:23:25.895Z,4.20
2018-02-03T14:25:59.105Z,4.30
2018-02-03T14:28:26.578Z,4.30
2018-02-03T14:30:54.171Z,4.20
2018-02-03T14:33:22.362Z,4.30
2018-02-03T14:35:49.837Z,4.30
2018-02-03T14:38:17.326Z,4.20
2018-02-03T14:40:44.902Z,4.30
2018-02-03T14:43:13.154Z,4.40
2018-02-03T14:45:41.390Z,4.30
2018-02-03T14:48:08.858Z,4.30
2018-02-03T14:50:36.354Z,4.30
2018-02-03T14:53:03.810Z,4.30
2018-02-03T14:55:31.298Z,4.40
2018-02-03T14:57:58.766Z,4.40
2018-02-03T15:00:26.226Z,4.40
2018-02-03T15:02:53.700Z,4.30
2018-02-03T15:05:21.170Z,4.30
2018-02-03T15:07:48.674Z,4.30
2018-02-03T15:10:16.158Z,4.30
2018-02-03T15:12:44.378Z,4.20
2018-02-03T15:15:11.832Z,4.20
2018-02-03T15:17:40.803Z,4.20
2018-02-03T15:20:08.303Z,4.20
2018-02-03T15:22:35.835Z,4.20
2018-02-03T15:25:03.624Z,4.10
2018-02-03T15:27:31.838Z,4.10
2018-02-03T15:29:59.299Z,4.10
2018-02-03T15:32:26.787Z,4.10
2018-02-03T15:34:55.793Z,4.10
2018-02-03T15:37:23.245Z,4.00
2018-02-03T15:39:50.786Z,4.10
2018-02-03T15:42:18.237Z,4.10
2018-02-03T15:44:45.727Z,4.20
2018-02-03T15:47:13.959Z,4.10
2018-02-03T15:49:41.441Z,4.10
2018-02-03T15:52:09.090Z,4.10
2018-02-03T15:54:36.545Z,4.10
2018-02-03T15:57:04.039Z,4.10
2018-02-03T15:59:31.478Z,4.10
2018-02-03T16:01:58.931Z,4.00
2018-02-03T16:04:26.590Z,4.10
2018-02-03T16:06:54.051Z,4.10
2018-02-03T16:09:21.510Z,4.10
2018-02-03T16:11:48.994Z,4.10
2018-02-03T16:14:16.473Z,4.10
2018-02-03T16:16:43.910Z,4.10
2018-02-03T16:19:11.385Z,4.10
2018-02-03T16:21:38.950Z,4.10
2018-02-03T16:24:06.412Z,4.00
2018-02-03T16:26:33.891Z,4.00
2018-02-03T16:29:01.419Z,4.00
2018-02-03T16:31:28.922Z,4.00
2018-02-03T16:33:56.395Z,4.00
2018-02-03T16:36:23.848Z,3.90
2018-02-03T16:38:52.077Z,3.90
2018-02-03T16:41:20.359Z,3.90
2018-02-03T16:43:47.878Z,3.90
2018-02-03T16:46:15.330Z,3.90
2018-02-03T16:48:43.562Z,3.90
2018-02-03T16:51:11.026Z,3.90
2018-02-03T16:53:38.511Z,3.90
2018-02-03T16:56:06.746Z,3.90
2018-02-03T16:58:34.202Z,3.90
2018-02-03T17:01:01.658Z,3.90
2018-02-03T17:03:29.143Z,3.90
2018-02-03T17:05:56.614Z,4.00
2018-02-03T17:08:24.901Z,4.00
2018-02-03T17:10:53.963Z,3.90
2018-02-03T17:13:22.942Z,4.00
2018-02-03T17:15:51.038Z,3.90
2018-02-03T17:18:19.288Z,4.00
2018-02-03T17:20:46.755Z,3.90
2018-02-03T17:23:14.214Z,4.00
2018-02-03T17:25:41.683Z,4.00
2018-02-03T17:28:09.927Z,4.00
2018-02-03T17:30:37.377Z,4.00
2018-02-03T17:33:04.854Z,4.00
2018-02-03T17:35:32.318Z,4.00
2018-02-03T17:38:05.545Z,4.00
2018-02-03T17:40:33.002Z,4.00
2018-02-03T17:43:00.479Z,3.90
2018-02-03T17:45:33.650Z,3.90
2018-02-03T17:48:01.147Z,3.90
2018-02-03T17:50:28.632Z,3.90
2018-02-03T17:52:56.138Z,3.80
2018-02-03T17:55:29.284Z,3.80
2018-02-03T17:57:56.747Z,3.80
2018-02-03T18:00:24.990Z,3.70
2018-02-03T18:02:52.458Z,3.70
2018-02-03T18:05:19.923Z,3.60
2018-02-03T18:07:47.382Z,3.60
2018-02-03T18:10:14.886Z,3.60
2018-02-03T18:12:42.379Z,3.50
2018-02-03T18:15:11.699Z,3.60
2018-02-03T18:17:39.174Z,3.60
2018-02-03T18:20:07.414Z,3.60
2018-02-03T18:22:34.865Z,3.60
2018-02-03T18:25:03.146Z,3.70
2018-02-03T18:27:30.626Z,3.70
2018-02-03T18:29:58.870Z,3.70
2018-02-03T18:32:26.346Z,3.70
2018-02-03T18:34:54.413Z,3.60
2018-02-03T18:37:21.875Z,3.60
2018-02-03T18:39:49.323Z,3.50
2018-02-03T18:42:16.846Z,3.50
2018-02-03T18:44:44.334Z,3.40
2018-02-03T18:49:53.923Z,3.40
2018-02-03T18:52:22.163Z,3.30
2018-02-03T18:54:49.703Z,3.30
2018-02-03T18:57:17.199Z,3.30
2018-02-03T18:59:45.616Z,3.20
2018-02-03T19:02:13.657Z,3.20
2018-02-03T19:04:41.167Z,3.20
2018-02-03T19:07:08.708Z,3.20
2018-02-03T19:09:37.093Z,3.10
2018-02-03T19:12:04.590Z,3.10
2018-02-03T19:14:34.936Z,3.10
2018-02-03T19:17:03.196Z,3.20
2018-02-03T19:19:31.491Z,3.10
2018-02-03T19:21:59.750Z,3.10
2018-02-03T19:24:27.290Z,3.10
2018-02-03T19:26:54.762Z,3.10
2018-02-03T19:29:22.213Z,3.10
2018-02-03T19:31:49.683Z,3.00
2018-02-03T19:34:17.942Z,2.90
2018-02-03T19:36:45.420Z,2.90
2018-02-03T19:39:13.682Z,2.80
2018-02-03T19:41:41.179Z,2.80
2018-02-03T19:44:08.646Z,2.80
2018-02-03T19:46:37.151Z,2.70
2018-02-03T19:49:04.658Z,2.80
2018-02-03T19:51:32.927Z,2.70
2018-02-03T19:54:01.198Z,2.70
2018-02-03T19:56:28.682Z,2.70
2018-02-03T19:58:56.167Z,2.70
2018-02-03T20:01:23.673Z,2.70
2018-02-03T20:03:51.915Z,2.60
2018-02-03T20:06:19.394Z,2.60
2018-02-03T20:08:46.879Z,2.60
2018-02-03T20:11:14.404Z,2.60
2018-02-03T20:13:42.651Z,2.40
2018-02-03T20:16:10.193Z,2.40
2018-02-03T20:18:37.700Z,2.40
2018-02-03T20:21:05.960Z,2.30
2018-02-03T20:23:33.470Z,2.30
2018-02-03T20:26:01.675Z,2.30
2018-02-03T20:28:29.156Z,2.30
2018-02-03T20:30:56.655Z,2.30
2018-02-03T20:33:24.146Z,2.30
2018-02-03T20:35:51.610Z,2.30
2018-02-03T20:38:19.134Z,2.20
2018-02-03T20:40:46.638Z,2.20
2018-02-03T20:43:14.147Z,2.30
2018-02-03T20:45:41.684Z,2.20
2018-02-03T20:48:09.195Z,2.20
2018-02-03T20:50:36.710Z,2.20
2018-02-03T20:53:04.956Z,2.20
2018-02-03T20:55:32.459Z,2.10
2018-02-03T20:58:00.078Z,2.20
2018-02-03T21:00:28.362Z,2.20
2018-02-03T21:02:56.618Z,2.10
2018-02-03T21:05:24.110Z,2.10
2018-02-03T21:07:51.621Z,2.10
2018-02-03T21:10:19.123Z,2.20
2018-02-03T21:12:47.450Z,2.20
2018-02-03T21:15:14.914Z,2.10
2018-02-03T21:17:42.441Z,2.20
2018-02-03T21:20:09.938Z,2.10
2018-02-03T21:22:37.420Z,2.10
2018-02-03T21:25:04.962Z,2.10
2018-02-03T21:27:32.446Z,2.00
2018-02-03T21:30:00.716Z,2.10
2018-02-03T21:32:28.242Z,2.10
2018-02-03T21:34:55.721Z,2.00
2018-02-03T21:37:24.026Z,1.90
2018-02-03T21:39:52.458Z,1.90
2018-02-03T21:42:19.942Z,2.00
2018-02-03T21:44:48.216Z,1.90
2018-02-03T21:47:15.747Z,1.90
2018-02-03T21:49:43.262Z,2.00
2018-02-03T21:52:10.830Z,1.90
2018-02-03T21:54:38.411Z,2.00
2018-02-03T21:57:05.908Z,1.90
2018-02-03T21:59:34.196Z,2.00
2018-02-03T22:02:01.690Z,1.90
2018-02-03T22:04:29.862Z,1.90
2018-02-03T22:06:57.411Z,1.90
2018-02-03T22:09:24.994Z,1.90
2018-02-03T22:11:52.503Z,2.00
2018-02-03T22:14:20.001Z,1.90
2018-02-03T22:16:47.535Z,1.90
2018-02-03T22:19:15.006Z,1.90
2018-02-03T22:21:43.421Z,1.90
2018-02-03T22:24:11.093Z,1.90
2018-02-03T22:26:38.548Z,1.80
2018-02-03T22:29:06.031Z,1.90
2018-02-03T22:31:34.257Z,1.80
2018-02-03T22:34:01.727Z,1.80
2018-02-03T22:36:29.230Z,1.80
2018-02-03T22:38:56.698Z,1.70
2018-02-03T22:41:24.173Z,1.70
2018-02-03T22:43:51.666Z,1.70
2018-02-03T22:46:19.890Z,1.70
2018-02-03T22:48:47.379Z,1.70
2018-02-03T22:51:14.862Z,1.70
2018-02-03T22:53:43.092Z,1.60
2018-02-03T22:56:10.568Z,1.60
2018-02-03T22:58:38.126Z,1.60
2018-02-03T23:01:11.330Z,1.60
2018-02-03T23:03:38.860Z,1.60
2018-02-03T23:06:07.050Z,1.60
2018-02-03T23:08:34.537Z,1.50
2018-02-03T23:11:02.802Z,1.50
2018-02-03T23:13:30.258Z,1.50
2018-02-03T23:15:57.718Z,1.60
2018-02-03T23:18:25.182Z,1.50
2018-02-03T23:20:53.410Z,1.60
2018-02-03T23:23:20.870Z,1.60
2018-02-03T23:25:48.379Z,1.50
2018-02-03T23:28:16.601Z,1.50
2018-02-03T23:30:44.070Z,1.50
2018-02-03T23:33:12.247Z,1.50
2018-02-03T23:35:39.726Z,1.40
2018-02-03T23:38:07.942Z,1.40
2018-02-03T23:40:35.413Z,1.40
2018-02-03T23:43:03.914Z,1.40
2018-02-03T23:45:31.362Z,1.40
2018-02-03T23:47:58.826Z,1.40
2018-02-03T23:50:26.296Z,1.40
2018-02-03T23:52:53.756Z,1.40
2018-02-03T23:55:21.210Z,1.40
2018-02-03T23:57:48.703Z,1.20
